Union Center, New York
Current Conditions -  °F | °C
As of 5:53 AM on Tuesday 21 Oct 2014 (Local Time) from KBGM Reporting Station
Overcast Overcast  
Wind Chill: 44°   Ceiling: 5000
Heat Index: 47°   Visibility: 10mi
Dew Point: 42°   Wind: 6mph
Humidity: 83%   Direction: 150°SSE
Pressure: 29.83"   Gusts: NA
Location:  42.1332°N, 76.0798°W
Report Text: KBGM 210953Z AUTO 15005KT 10SM BKN050 OVC065 08/06 A2983 RMK AO2 RAB16E28 SLP105 P0000 T00830056
Loading
Personal Weather Stations






























Interactive Weather Map
Tropical Storm Tracking
New forecast layout! Learn more

10-Day Weather Forecast

Advertisements
Track Severe Weather on mobile